Inger, Minnesota
Current Conditions -  °F | °C
As of 1:13 PM on Thursday 30 Oct 2014 (Local Time) from KFOZ Reporting Station
Broken Clouds Broken Clouds  
Wind Chill: 31°   Ceiling: 1300
Heat Index: 37°   Visibility: 10mi
Dew Point: 34°   Wind: 8mph
Humidity: 87%   Direction: 350°N
Pressure: 30.15"   Gusts: NA
Location:  47.4603°N, 94.029°W
Report Text: KFOZ 301813Z AUTO 35007KT 323V033 10SM BKN013 BKN035 03/01 A3015 RMK AO2
Loading
Personal Weather Stations






























Interactive Weather Map
Tropical Storm Tracking
New forecast layout! Learn more

10-Day Weather Forecast

Advertisements
Track Severe Weather on mobile